Time;durP1;ratioP1;P1;durP2;ratioP2;P2;SDS_P1;SDS_P2;PMS_P1;PMS_P2;Temp;Humidity;BMP_temperature;BMP_pressure;BME280_temperature;BME280_humidity;BME280_pressure;Samples;Min_cycle;Max_cycle;Signal;HPM_P1;HPM_P2
2023/08/01 00:00:00;;;;;;;11.20;3.17;;;;;;;18.13;79.20;99035.22;10503923;28;20406;-72
2023/08/01 00:05:02;;;;;;;11.88;2.85;;;;;;;18.06;79.79;99021.81;10505106;28;20119;-73
2023/08/01 00:10:04;;;;;;;9.27;2.72;;;;;;;18.06;79.71;99002.78;10499573;28;20063;-74
2023/08/01 00:15:06;;;;;;;5.97;2.35;;;;;;;18.01;80.16;98994.59;10503435;28;20103;-74
2023/08/01 00:20:08;;;;;;;8.65;2.60;;;;;;;17.99;80.38;98999.44;10502204;28;20070;-74
2023/08/01 00:25:09;;;;;;;8.00;2.70;;;;;;;18.05;80.18;98968.50;10503273;28;20119;-73
2023/08/01 00:30:11;;;;;;;9.55;1.95;;;;;;;18.04;80.33;98948.63;10504059;28;20387;-73
2023/08/01 00:35:12;;;;;;;12.88;2.70;;;;;;;18.10;80.26;98927.75;10499156;28;20052;-73
2023/08/01 00:40:14;;;;;;;10.40;2.58;;;;;;;18.13;80.46;98920.97;10503004;28;20124;-73
2023/08/01 00:45:15;;;;;;;5.20;2.03;;;;;;;18.16;80.44;98915.00;10500457;28;20055;-74
2023/08/01 00:50:20;;;;;;;7.50;2.08;;;;;;;18.22;80.26;98893.00;10501732;28;20331;-73
2023/08/01 00:55:22;;;;;;;8.32;2.08;;;;;;;18.19;80.42;98899.00;10502164;28;20047;-73
2023/08/01 01:00:24;;;;;;;8.00;2.67;;;;;;;18.13;81.06;98897.31;10496122;28;20071;-74
2023/08/01 01:05:27;;;;;;;9.68;2.97;;;;;;;18.12;80.92;98875.81;10498977;28;20074;-74
2023/08/01 01:10:28;;;;;;;14.18;3.42;;;;;;;18.15;80.80;98887.00;10499088;28;20041;-73
2023/08/01 01:15:30;;;;;;;11.02;3.13;;;;;;;18.18;80.88;98867.41;10499510;28;20129;-74
2023/08/01 01:20:35;;;;;;;11.50;3.28;;;;;;;18.12;81.16;98854.06;10501033;28;20049;-72
2023/08/01 01:25:38;;;;;;;12.48;2.75;;;;;;;18.17;81.07;98848.66;10496320;28;20052;-71
2023/08/01 01:30:43;;;;;;;6.53;2.05;;;;;;;18.13;81.53;98831.22;10498513;28;20083;-72
2023/08/01 01:35:44;;;;;;;8.90;2.78;;;;;;;18.11;81.56;98827.94;10499755;28;20097;-73
2023/08/01 01:40:46;;;;;;;8.40;2.80;;;;;;;18.13;81.58;98828.50;10498870;28;20323;-72
2023/08/01 01:45:47;;;;;;;9.48;2.88;;;;;;;18.11;81.73;98826.06;10494288;28;20112;-71
2023/08/01 01:50:48;;;;;;;10.38;2.30;;;;;;;18.23;81.42;98834.81;10481057;28;20040;-71
2023/08/01 01:55:50;;;;;;;6.53;1.95;;;;;;;18.21;81.59;98798.91;10499172;28;20108;-72
2023/08/01 02:00:51;;;;;;;13.13;3.08;;;;;;;18.23;81.70;98795.94;10498477;28;20111;-72
2023/08/01 02:05:53;;;;;;;10.98;2.50;;;;;;;18.19;81.81;98803.78;10499478;28;21013;-73
2023/08/01 02:10:57;;;;;;;8.65;2.97;;;;;;;18.29;81.52;98788.63;10499300;28;20053;-72
2023/08/01 02:15:59;;;;;;;12.15;3.45;;;;;;;18.21;81.86;98787.22;10497322;28;20036;-72
2023/08/01 02:21:00;;;;;;;14.57;3.22;;;;;;;18.28;81.84;98746.97;10498987;28;20052;-72
2023/08/01 02:26:02;;;;;;;11.73;3.35;;;;;;;18.31;81.79;98745.63;10500206;28;20341;-72
2023/08/01 02:31:03;;;;;;;14.23;4.28;;;;;;;18.33;81.64;98724.44;10497994;28;20132;-72
2023/08/01 02:36:05;;;;;;;11.90;4.00;;;;;;;18.23;82.10;98730.66;10499361;28;20222;-72
2023/08/01 02:41:06;;;;;;;13.00;3.03;;;;;;;18.30;82.07;98728.47;10496920;28;20040;-73
2023/08/01 02:46:07;;;;;;;12.00;3.42;;;;;;;18.27;82.20;98714.63;10499815;28;20128;-72
2023/08/01 02:51:09;;;;;;;12.55;3.88;;;;;;;18.34;82.06;98698.84;10499013;28;20117;-73
2023/08/01 02:56:11;;;;;;;13.65;3.33;;;;;;;18.31;82.25;98694.75;10496723;28;20040;-72
2023/08/01 03:01:13;;;;;;;11.13;3.47;;;;;;;18.33;82.16;98700.75;10498126;28;20067;-72
2023/08/01 03:06:15;;;;;;;8.70;2.90;;;;;;;18.25;82.60;98684.97;10498956;28;20238;-71
2023/08/01 03:11:17;;;;;;;12.35;2.70;;;;;;;18.36;82.35;98694.75;10503372;28;20052;-72
2023/08/01 03:16:18;;;;;;;7.65;2.13;;;;;;;18.38;82.19;98681.72;10506221;28;20107;-72
2023/08/01 03:21:19;;;;;;;12.70;2.83;;;;;;;18.35;82.35;98692.34;10506491;28;20340;-71
2023/08/01 03:26:21;;;;;;;11.48;3.10;;;;;;;18.30;82.61;98690.38;10504108;28;20335;-72
2023/08/01 03:31:23;;;;;;;12.70;2.53;;;;;;;18.33;82.62;98684.44;10501407;28;20086;-71
2023/08/01 03:36:25;;;;;;;11.15;2.35;;;;;;;18.35;82.74;98676.00;10504568;28;20440;-72
2023/08/01 03:41:26;;;;;;;11.48;2.35;;;;;;;18.36;82.82;98688.50;10504422;28;20271;-73
2023/08/01 03:46:28;;;;;;;7.90;2.20;;;;;;;18.32;82.90;98665.66;10503686;28;20048;-74
2023/08/01 03:51:29;;;;;;;9.10;2.38;;;;;;;18.31;83.06;98643.06;10504853;28;20050;-73
2023/08/01 03:56:31;;;;;;;9.10;3.10;;;;;;;18.35;83.17;98648.81;10500428;28;20136;-74
2023/08/01 04:01:32;;;;;;;5.68;1.90;;;;;;;18.36;82.82;98629.47;10485438;28;20100;-74
2023/08/01 04:06:34;;;;;;;11.43;2.63;;;;;;;18.35;82.94;98614.25;10487129;28;20041;-74
2023/08/01 04:11:35;;;;;;;7.10;1.77;;;;;;;18.42;82.94;98638.47;10504213;28;20104;-74
2023/08/01 04:16:37;;;;;;;4.95;1.73;;;;;;;18.48;82.91;98637.38;10500727;28;20057;-74
2023/08/01 04:21:39;;;;;;;6.13;1.92;;;;;;;18.49;82.83;98647.19;10496195;28;20341;-74
2023/08/01 04:26:40;;;;;;;7.93;2.00;;;;;;;18.60;82.76;98658.88;10502202;28;20372;-74
2023/08/01 04:31:42;;;;;;;11.73;2.15;;;;;;;18.56;82.90;98653.19;10504223;28;20056;-74
2023/08/01 04:36:43;;;;;;;7.00;1.63;;;;;;;18.54;83.01;98649.09;10502848;28;20331;-73
2023/08/01 04:41:44;;;;;;;8.43;1.60;;;;;;;18.46;83.18;98647.72;10502148;28;20127;-75
2023/08/01 04:46:48;;;;;;;11.00;2.50;;;;;;;18.44;83.40;98671.66;10498972;28;20047;-74
2023/08/01 04:51:50;;;;;;;5.47;1.95;;;;;;;18.48;83.13;98656.41;10501613;28;20100;-71
2023/08/01 04:56:51;;;;;;;6.30;1.58;;;;;;;18.42;83.43;98625.69;10498577;28;20064;-73
2023/08/01 05:01:53;;;;;;;7.70;1.27;;;;;;;18.36;83.60;98625.94;10498768;28;20055;-72
2023/08/01 05:06:54;;;;;;;5.70;0.88;;;;;;;18.35;83.52;98611.53;10498810;28;20236;-73
2023/08/01 05:11:55;;;;;;;4.82;1.08;;;;;;;18.40;83.48;98603.38;10495877;28;20055;-72
2023/08/01 05:16:57;;;;;;;3.08;1.30;;;;;;;18.38;83.40;98596.56;10501125;28;20056;-73
2023/08/01 05:21:58;;;;;;;6.18;1.75;;;;;;;18.40;83.40;98617.00;10500014;28;20052;-74
2023/08/01 05:26:59;;;;;;;4.80;1.15;;;;;;;18.40;83.39;98603.38;10498273;28;20064;-73
2023/08/01 05:32:01;;;;;;;3.13;1.10;;;;;;;18.38;83.67;98591.13;10497336;28;20064;-73
2023/08/01 05:37:03;;;;;;;5.38;1.20;;;;;;;18.39;83.52;98596.28;10496965;28;20076;-72
2023/08/01 05:42:08;;;;;;;9.02;2.22;;;;;;;18.42;83.47;98603.09;10498775;28;20108;-72
2023/08/01 05:47:10;;;;;;;5.47;1.40;;;;;;;18.54;83.39;98586.50;10503714;28;20092;-73
2023/08/01 05:52:11;;;;;;;8.13;1.67;;;;;;;18.48;83.26;98576.69;10502090;28;20064;-72
2023/08/01 05:57:13;;;;;;;5.63;1.55;;;;;;;18.38;83.56;98624.59;10497389;28;20040;-72
2023/08/01 06:02:14;;;;;;;3.97;0.90;;;;;;;18.29;83.87;98656.13;10493289;28;20063;-73
2023/08/01 06:07:16;;;;;;;3.33;0.80;;;;;;;18.14;84.31;98666.97;10499913;28;20054;-72
2023/08/01 06:12:18;;;;;;;0.00;0.00;;;;;;;18.08;84.34;98706.09;10500287;28;20107;-72
2023/08/01 06:17:20;;;;;;;0.00;0.00;;;;;;;17.71;84.69;98693.38;10499880;28;20108;-72
2023/08/01 06:22:21;;;;;;;0.00;0.00;;;;;;;17.56;84.64;98711.25;10500208;28;20052;-72
2023/08/01 06:27:22;;;;;;;0.00;0.00;;;;;;;17.77;84.00;98709.47;10495916;28;20054;-71
2023/08/01 06:32:24;;;;;;;0.00;0.00;;;;;;;17.79;83.98;98722.78;10499959;28;20068;-72
2023/08/01 06:37:25;;;;;;;0.00;0.00;;;;;;;17.77;83.85;98722.22;10498700;28;20044;-71
2023/08/01 06:42:27;;;;;;;0.00;0.00;;;;;;;17.53;84.13;98732.69;10503839;28;20067;-72
2023/08/01 06:47:28;;;;;;;0.00;0.00;;;;;;;17.51;83.63;98738.38;10510104;28;20096;-72
2023/08/01 06:52:30;;;;;;;0.00;0.00;;;;;;;17.66;83.47;98745.00;10504262;28;20064;-72
2023/08/01 06:57:31;;;;;;;0.00;0.00;;;;;;;17.57;83.55;98745.47;10506004;28;20052;-72
2023/08/01 07:02:33;;;;;;;0.00;0.00;;;;;;;17.64;83.84;98756.13;10504718;28;20040;-72
2023/08/01 07:07:34;;;;;;;0.00;0.00;;;;;;;17.50;83.73;98761.19;10498240;28;20048;-72
2023/08/01 07:12:36;;;;;;;0.00;0.00;;;;;;;17.47;83.76;98764.41;10505913;28;20068;-72
2023/08/01 07:17:37;;;;;;;0.00;0.00;;;;;;;17.46;83.75;98762.81;10502887;28;20529;-71
2023/08/01 07:22:38;;;;;;;0.00;0.00;;;;;;;17.53;83.54;98765.28;10511024;28;20040;-72
2023/08/01 07:27:40;;;;;;;0.00;0.00;;;;;;;17.57;83.28;98767.22;10509595;28;20048;-71
2023/08/01 07:32:43;;;;;;;0.00;0.00;;;;;;;17.69;82.92;98764.31;10506200;28;20052;-72
2023/08/01 07:37:44;;;;;;;0.00;0.00;;;;;;;17.94;82.74;98752.00;10505498;28;20105;-72
2023/08/01 07:42:46;;;;;;;0.00;0.00;;;;;;;18.03;82.18;98753.94;10499608;28;20150;-71
2023/08/01 07:47:48;;;;;;;0.00;0.00;;;;;;;18.12;81.95;98762.41;10503773;28;20341;-73
2023/08/01 07:52:49;;;;;;;0.10;0.10;;;;;;;18.16;81.57;98773.56;10502276;28;20036;-73
2023/08/01 07:57:50;;;;;;;0.00;0.00;;;;;;;18.18;81.49;98793.16;10504567;28;20060;-73
2023/08/01 08:02:53;;;;;;;0.00;0.00;;;;;;;18.25;81.13;98793.75;10503623;28;20044;-73
2023/08/01 08:07:55;;;;;;;0.00;0.00;;;;;;;18.42;81.05;98805.28;10500524;28;20082;-73
2023/08/01 08:12:56;;;;;;;0.00;0.00;;;;;;;18.65;81.04;98797.72;10503985;28;20044;-74
2023/08/01 08:17:57;;;;;;;0.00;0.00;;;;;;;18.76;79.73;98809.44;10502701;28;20056;-73
2023/08/01 08:22:59;;;;;;;0.00;0.00;;;;;;;18.89;78.90;98808.16;10504114;28;20341;-73
2023/08/01 08:28:00;;;;;;;1.45;0.52;;;;;;;19.06;78.24;98825.09;10502908;28;20416;-75
2023/08/01 08:33:04;;;;;;;0.00;0.00;;;;;;;19.31;77.86;98818.03;10498796;28;20048;-75
2023/08/01 08:38:06;;;;;;;0.00;0.00;;;;;;;19.45;76.52;98826.47;10501929;28;20051;-74
2023/08/01 08:43:07;;;;;;;0.00;0.00;;;;;;;19.52;75.43;98827.03;10506149;28;20115;-73
2023/08/01 08:48:15;;;;;;;0.00;0.00;;;;;;;19.70;73.36;98831.13;10504137;28;20309;-73
2023/08/01 08:53:17;;;;;;;0.00;0.00;;;;;;;19.94;72.65;98834.13;10505743;28;20136;-74
2023/08/01 08:58:19;;;;;;;0.00;0.00;;;;;;;20.08;71.29;98826.19;10501030;28;20376;-73
2023/08/01 09:03:21;;;;;;;0.00;0.00;;;;;;;20.32;70.54;98827.22;10503408;28;20111;-73
2023/08/01 09:08:26;;;;;;;0.00;0.00;;;;;;;20.48;69.18;98833.47;10503006;28;20062;-73
2023/08/01 09:13:28;;;;;;;0.00;0.00;;;;;;;20.68;68.22;98826.31;10503515;28;20064;-73
2023/08/01 09:18:29;;;;;;;0.40;0.30;;;;;;;20.92;68.44;98829.19;10501830;28;20044;-73
2023/08/01 09:23:31;;;;;;;1.00;0.38;;;;;;;21.13;67.27;98822.50;10497316;28;20333;-73
2023/08/01 09:28:32;;;;;;;2.20;0.38;;;;;;;21.22;66.09;98811.78;10502588;28;20048;-73
2023/08/01 09:33:41;;;;;;;0.50;0.20;;;;;;;21.51;65.22;98824.72;10502444;28;20040;-73
2023/08/01 09:38:42;;;;;;;0.50;0.30;;;;;;;21.67;64.31;98830.88;10500764;28;20341;-73
2023/08/01 09:43:46;;;;;;;0.85;0.35;;;;;;;21.73;63.21;98825.06;10498140;28;20043;-73
2023/08/01 09:48:47;;;;;;;2.03;0.25;;;;;;;21.86;63.25;98828.22;10496543;28;20036;-74
2023/08/01 09:53:49;;;;;;;2.10;0.20;;;;;;;21.93;62.56;98835.00;10501372;28;20099;-73
2023/08/01 09:58:53;;;;;;;0.80;0.30;;;;;;;22.16;61.39;98833.41;10499825;28;20376;-73
2023/08/01 10:03:56;;;;;;;1.17;0.20;;;;;;;22.37;60.89;98830.47;10494600;28;20067;-74
2023/08/01 10:08:59;;;;;;;0.40;0.20;;;;;;;22.68;57.90;98854.75;10497758;28;20075;-73
2023/08/01 10:14:03;;;;;;;1.10;0.30;;;;;;;22.64;56.67;98842.75;10496667;28;20382;-74
2023/08/01 10:19:06;;;;;;;0.57;0.30;;;;;;;22.33;57.93;98862.28;10503124;28;20146;-74
2023/08/01 10:24:09;;;;;;;0.40;0.20;;;;;;;20.63;64.44;98879.00;10497233;28;20051;-75
2023/08/01 10:29:10;;;;;;;1.35;0.40;;;;;;;20.21;65.32;98855.63;10497873;28;20521;-75
2023/08/01 10:34:13;;;;;;;0.68;0.30;;;;;;;20.59;64.35;98848.72;10498620;28;20147;-75
2023/08/01 10:39:22;;;;;;;1.30;0.38;;;;;;;20.94;62.10;98843.38;10499598;28;20056;-74
2023/08/01 10:44:24;;;;;;;1.27;0.30;;;;;;;21.43;61.27;98844.44;10501028;28;20047;-74
2023/08/01 10:49:40;;;;;;;0.80;0.20;;;;;;;21.65;59.85;98855.78;10502743;28;20115;-74
2023/08/01 10:54:41;;;;;;;0.57;0.30;;;;;;;21.84;58.80;98872.31;10500547;28;20333;-74
2023/08/01 10:59:44;;;;;;;1.52;0.32;;;;;;;21.74;58.05;98875.94;10499031;28;20048;-74
2023/08/01 11:05:07;;;;;;;0.40;0.20;;;;;;;21.72;57.30;98885.53;10501479;28;20044;-74
2023/08/01 11:10:10;;;;;;;1.30;0.30;;;;;;;22.08;56.15;98887.97;10507077;28;20337;-75
2023/08/01 11:15:13;;;;;;;0.88;0.30;;;;;;;22.55;55.43;98887.25;10501911;28;20045;-74
2023/08/01 11:20:16;;;;;;;1.80;0.40;;;;;;;22.76;54.18;98887.00;10500451;28;20079;-74
2023/08/01 11:25:18;;;;;;;0.30;0.15;;;;;;;23.00;53.69;98877.94;10491646;28;20316;-73
2023/08/01 11:30:19;;;;;;;0.90;0.30;;;;;;;23.09;53.65;98881.69;10505116;28;20048;-73
2023/08/01 11:35:21;;;;;;;0.90;0.20;;;;;;;23.44;54.40;98868.53;10505810;28;20633;-74
2023/08/01 11:40:23;;;;;;;1.00;0.20;;;;;;;23.72;52.96;98880.47;10506385;28;20044;-74
2023/08/01 11:45:25;;;;;;;0.45;0.20;;;;;;;24.11;50.36;98874.63;10506241;28;20123;-74
2023/08/01 11:50:26;;;;;;;0.50;0.20;;;;;;;24.26;49.32;98878.19;10500659;28;21044;-74
2023/08/01 11:55:28;;;;;;;0.77;0.28;;;;;;;24.24;48.78;98886.72;10506558;28;20060;-75
2023/08/01 12:00:29;;;;;;;1.35;0.25;;;;;;;24.04;49.39;98907.13;10503875;28;20048;-73
2023/08/01 12:05:31;;;;;;;1.67;0.40;;;;;;;20.45;63.56;98953.31;10501055;28;20111;-74
2023/08/01 12:10:59;;;;;;;2.00;0.40;;;;;;;19.51;67.65;98959.78;10501811;28;20261;-75
2023/08/01 12:16:00;;;;;;;0.73;0.30;;;;;;;19.42;68.97;98947.75;10503866;28;20052;-75
2023/08/01 12:21:05;;;;;;;1.55;0.30;;;;;;;19.58;69.20;98954.06;10504340;28;20079;-76
2023/08/01 12:26:07;;;;;;;0.77;0.40;;;;;;;19.86;69.33;98933.66;10503887;28;20044;-76
2023/08/01 12:31:08;;;;;;;0.55;0.20;;;;;;;20.11;68.97;98943.78;10503301;28;20040;-76
2023/08/01 12:36:10;;;;;;;1.00;0.20;;;;;;;20.36;68.18;98939.41;10499970;28;20079;-75
2023/08/01 12:41:11;;;;;;;1.27;0.32;;;;;;;20.39;66.87;98944.28;10500273;28;20166;-76
2023/08/01 12:46:13;;;;;;;0.40;0.20;;;;;;;20.36;66.29;98951.13;10503959;28;20060;-76
2023/08/01 12:51:14;;;;;;;0.80;0.20;;;;;;;20.19;66.09;98950.59;10503062;28;20052;-72
2023/08/01 12:56:16;;;;;;;0.40;0.20;;;;;;;20.30;65.10;98944.03;10504435;28;20060;-73
2023/08/01 13:01:17;;;;;;;2.05;0.25;;;;;;;20.72;64.21;98953.00;10500458;28;20139;-73
2023/08/01 13:06:19;;;;;;;0.80;0.30;;;;;;;21.16;63.41;98935.88;10511673;28;20360;-73
2023/08/01 13:11:21;;;;;;;0.32;0.20;;;;;;;21.55;62.42;98935.16;10503868;28;20218;-73
2023/08/01 13:16:22;;;;;;;1.45;0.30;;;;;;;22.08;60.48;98942.72;10504905;28;20407;-73
2023/08/01 13:21:24;;;;;;;1.63;0.45;;;;;;;22.36;58.55;98935.63;10501255;28;20078;-74
2023/08/01 13:26:25;;;;;;;2.75;0.73;;;;;;;22.97;57.07;98934.16;10495228;28;20312;-75
2023/08/01 13:31:27;;;;;;;3.72;0.60;;;;;;;23.36;55.13;98920.22;10504431;28;20094;-74
2023/08/01 13:36:29;;;;;;;1.42;0.30;;;;;;;23.58;53.69;98921.56;10502764;28;20109;-74
2023/08/01 13:41:31;;;;;;;0.70;0.30;;;;;;;23.43;53.52;98922.59;10502759;28;20100;-74
2023/08/01 13:46:33;;;;;;;2.63;0.70;;;;;;;23.36;54.00;98964.09;10499844;28;20060;-74
2023/08/01 13:51:34;;;;;;;1.48;0.40;;;;;;;22.77;54.90;99029.19;10496870;28;20052;-74
2023/08/01 13:56:36;;;;;;;6.38;0.52;;;;;;;19.80;67.70;99069.19;10498340;28;20368;-75
2023/08/01 14:01:40;;;;;;;2.17;0.40;;;;;;;19.15;70.18;99024.22;10499617;28;20060;-73
2023/08/01 14:06:42;;;;;;;0.82;0.30;;;;;;;19.32;70.60;99015.88;10505641;28;20040;-69
2023/08/01 14:11:44;;;;;;;3.33;0.30;;;;;;;19.48;72.60;99001.19;10498812;28;20112;-73
2023/08/01 14:16:46;;;;;;;2.53;0.45;;;;;;;19.46;73.46;98995.19;10495086;28;20068;-73
2023/08/01 14:21:47;;;;;;;2.97;0.40;;;;;;;19.42;73.95;99018.63;10496965;28;20063;-73
2023/08/01 14:26:50;;;;;;;2.58;0.43;;;;;;;19.41;74.55;99016.97;10498946;28;20075;-73
2023/08/01 14:31:52;;;;;;;2.00;0.40;;;;;;;19.53;74.96;99016.75;10500342;28;20474;-73
2023/08/01 14:36:54;;;;;;;1.75;0.40;;;;;;;19.75;75.74;99013.84;10497414;28;20048;-73
2023/08/01 14:41:55;;;;;;;2.72;0.60;;;;;;;19.85;76.12;99019.31;10494549;28;20115;-73
2023/08/01 14:46:59;;;;;;;2.08;0.30;;;;;;;20.27;76.09;99014.72;10498917;28;20115;-74
2023/08/01 14:52:01;;;;;;;2.67;0.20;;;;;;;20.39;76.22;99023.44;10497676;28;20067;-72
2023/08/01 14:57:02;;;;;;;0.50;0.35;;;;;;;20.37;75.43;99031.91;10499370;28;20072;-74
2023/08/01 15:02:06;;;;;;;1.48;0.30;;;;;;;19.68;76.70;99024.16;10502427;28;20059;-74
2023/08/01 15:07:10;;;;;;;3.15;0.38;;;;;;;19.82;76.38;99025.31;10508920;28;20040;-74
2023/08/01 15:12:12;;;;;;;0.52;0.20;;;;;;;20.38;75.26;99022.63;10516192;28;20047;-75
2023/08/01 15:17:13;;;;;;;1.42;0.20;;;;;;;20.63;73.38;99025.66;10504891;28;20084;-75
2023/08/01 15:22:16;;;;;;;2.90;0.30;;;;;;;20.71;73.08;99034.09;10505354;28;20063;-75
2023/08/01 15:27:17;;;;;;;1.45;0.25;;;;;;;20.86;72.97;99051.56;10506163;28;20085;-75
2023/08/01 15:32:19;;;;;;;1.95;0.22;;;;;;;20.68;70.75;99056.50;10502597;28;20052;-75
2023/08/01 15:37:20;;;;;;;2.88;0.20;;;;;;;20.91;70.68;99062.47;10515206;28;20059;-76
2023/08/01 15:42:22;;;;;;;1.00;0.30;;;;;;;21.09;70.86;99066.53;10506259;28;20056;-75
2023/08/01 15:47:23;;;;;;;1.42;0.20;;;;;;;21.08;70.17;99071.19;10508363;28;20040;-74
2023/08/01 15:52:25;;;;;;;0.40;0.30;;;;;;;20.96;69.82;99062.47;10509831;28;20044;-72
2023/08/01 15:57:27;;;;;;;3.03;0.20;;;;;;;20.86;69.14;99057.03;10505044;28;20056;-74
2023/08/01 16:02:28;;;;;;;0.57;0.10;;;;;;;20.61;67.85;99055.97;10506693;28;20040;-74
2023/08/01 16:07:30;;;;;;;1.40;0.22;;;;;;;20.60;67.91;99065.25;10506819;28;20048;-74
2023/08/01 16:12:31;;;;;;;1.38;0.28;;;;;;;20.52;67.28;99085.69;10503712;28;20067;-74
2023/08/01 16:17:32;;;;;;;3.28;0.30;;;;;;;20.73;66.68;99081.06;10502871;28;20048;-74
2023/08/01 16:22:34;;;;;;;1.10;0.20;;;;;;;20.74;66.61;99087.38;10501066;28;20089;-74
2023/08/01 16:27:36;;;;;;;2.72;0.20;;;;;;;21.31;66.44;99085.34;10503193;28;20060;-73
2023/08/01 16:32:37;;;;;;;0.95;0.20;;;;;;;22.10;65.79;99091.03;10502979;28;20036;-73
2023/08/01 16:37:40;;;;;;;1.60;0.30;;;;;;;22.67;65.09;99080.50;10502817;28;20056;-73
2023/08/01 16:42:42;;;;;;;1.08;0.20;;;;;;;23.26;64.42;99084.91;10501262;28;20124;-74
2023/08/01 16:47:44;;;;;;;2.47;0.30;;;;;;;24.09;63.25;99085.53;10494445;28;20218;-75
2023/08/01 16:52:46;;;;;;;0.50;0.20;;;;;;;24.79;62.83;99072.09;10505399;28;20279;-71
2023/08/01 16:57:48;;;;;;;0.50;0.20;;;;;;;24.98;62.26;99075.59;10501991;28;20048;-71
2023/08/01 17:02:49;;;;;;;1.67;0.30;;;;;;;24.90;61.26;99071.59;10498371;28;20052;-72
2023/08/01 17:07:51;;;;;;;0.70;0.20;;;;;;;24.81;60.18;99075.34;10500139;28;20037;-72
2023/08/01 17:12:52;;;;;;;1.23;0.30;;;;;;;25.41;58.11;99071.75;10498820;28;20071;-72
2023/08/01 17:17:53;;;;;;;1.58;0.50;;;;;;;25.74;57.33;99072.44;10501257;28;20048;-73
2023/08/01 17:22:55;;;;;;;0.40;0.20;;;;;;;25.95;55.88;99088.53;10500787;28;20048;-72
2023/08/01 17:27:56;;;;;;;3.28;0.40;;;;;;;26.26;54.26;99084.00;10500483;28;20064;-72
2023/08/01 17:32:58;;;;;;;1.77;0.20;;;;;;;25.80;53.96;99086.94;10499163;28;20040;-72
2023/08/01 17:38:00;;;;;;;0.75;0.20;;;;;;;24.99;53.92;99098.38;10498072;28;20120;-71
2023/08/01 17:43:02;;;;;;;0.60;0.20;;;;;;;24.25;53.60;99110.00;10500492;28;20056;-72
2023/08/01 17:48:03;;;;;;;1.83;0.20;;;;;;;23.85;54.13;99112.19;10499406;28;20727;-72
2023/08/01 17:53:05;;;;;;;3.38;0.20;;;;;;;24.07;53.78;99115.19;10501154;28;20094;-73
2023/08/01 17:58:06;;;;;;;0.50;0.20;;;;;;;23.79;53.72;99119.69;10499481;28;20085;-72
2023/08/01 18:03:08;;;;;;;1.48;0.20;;;;;;;23.67;54.50;99122.00;10492667;28;20135;-72
2023/08/01 18:08:09;;;;;;;2.33;0.30;;;;;;;23.48;54.75;99130.16;10498245;28;20043;-72
2023/08/01 18:13:11;;;;;;;0.85;0.20;;;;;;;23.24;55.49;99122.72;10499538;28;20042;-73
2023/08/01 18:18:12;;;;;;;1.40;0.20;;;;;;;23.00;55.93;99130.09;10498581;28;20115;-72
2023/08/01 18:23:15;;;;;;;1.60;0.20;;;;;;;22.60;56.16;99138.34;10499482;28;20040;-71
2023/08/01 18:28:16;;;;;;;2.55;0.30;;;;;;;22.34;56.42;99140.47;10495499;28;20202;-71
2023/08/01 18:33:18;;;;;;;1.77;0.20;;;;;;;22.27;57.04;99148.16;10498425;28;20047;-72
2023/08/01 18:38:19;;;;;;;2.33;0.30;;;;;;;21.98;57.80;99143.38;10504972;28;20127;-71
2023/08/01 18:43:20;;;;;;;1.35;0.20;;;;;;;21.76;57.85;99143.72;10505261;28;20746;-72
2023/08/01 18:48:22;;;;;;;1.50;0.40;;;;;;;21.55;58.09;99156.66;10507696;28;20290;-71
2023/08/01 18:53:23;;;;;;;0.50;0.25;;;;;;;21.24;57.86;99155.88;10504003;28;20442;-72
2023/08/01 18:58:25;;;;;;;2.15;0.20;;;;;;;21.08;57.70;99172.28;10506862;28;20044;-72
2023/08/01 19:03:27;;;;;;;3.10;0.43;;;;;;;21.04;58.37;99176.66;10508614;28;20079;-72
2023/08/01 19:08:28;;;;;;;1.65;0.30;;;;;;;20.96;58.33;99171.75;10507443;28;20056;-73
2023/08/01 19:13:30;;;;;;;3.40;0.40;;;;;;;20.99;58.18;99177.50;10507632;28;20199;-72
2023/08/01 19:18:32;;;;;;;1.67;0.50;;;;;;;20.82;57.89;99198.81;10500452;28;20287;-73
2023/08/01 19:23:34;;;;;;;2.25;0.30;;;;;;;20.59;57.93;99221.97;10503239;28;20295;-73
2023/08/01 19:28:37;;;;;;;1.38;0.20;;;;;;;20.50;58.04;99220.84;10505824;28;20083;-72
2023/08/01 19:33:38;;;;;;;1.27;0.30;;;;;;;20.39;57.72;99223.53;10505344;28;20301;-72
2023/08/01 19:38:40;;;;;;;2.33;0.22;;;;;;;20.45;58.24;99238.00;10505187;28;20358;-72
2023/08/01 19:43:41;;;;;;;2.72;0.30;;;;;;;20.56;58.27;99241.63;10503708;28;20041;-73
2023/08/01 19:48:45;;;;;;;2.55;0.35;;;;;;;20.58;58.32;99242.97;10502986;28;20044;-72
2023/08/01 19:53:46;;;;;;;2.78;0.30;;;;;;;20.55;58.92;99254.41;10504860;28;20044;-72
2023/08/01 19:58:47;;;;;;;4.75;0.60;;;;;;;20.51;59.67;99253.31;10505977;28;20345;-71
2023/08/01 20:03:49;;;;;;;2.22;0.40;;;;;;;20.44;59.61;99260.13;10503916;28;20044;-73
2023/08/01 20:08:50;;;;;;;3.45;0.38;;;;;;;20.40;59.65;99252.47;10503122;28;20098;-74
2023/08/01 20:13:52;;;;;;;1.63;0.30;;;;;;;20.29;60.17;99267.16;10483068;28;20033;-71
2023/08/01 20:18:54;;;;;;;2.25;0.35;;;;;;;20.25;60.07;99276.16;10499222;28;20107;-72
2023/08/01 20:23:55;;;;;;;1.25;0.30;;;;;;;20.21;60.41;99267.69;10504783;28;20310;-73
2023/08/01 20:28:57;;;;;;;1.85;0.40;;;;;;;20.16;60.45;99279.41;10503858;28;20044;-72
2023/08/01 20:33:59;;;;;;;2.17;0.40;;;;;;;20.08;60.96;99290.00;10503810;28;20044;-73
2023/08/01 20:39:01;;;;;;;3.25;0.52;;;;;;;20.08;60.52;99282.63;10501175;28;20040;-73
2023/08/01 20:44:03;;;;;;;3.42;0.30;;;;;;;20.18;60.81;99279.13;10502592;28;20040;-72
2023/08/01 20:49:04;;;;;;;1.40;0.55;;;;;;;20.19;60.82;99275.31;10503721;28;20048;-72
2023/08/01 20:54:06;;;;;;;1.73;0.30;;;;;;;20.12;60.95;99277.47;10500462;28;20632;-71
2023/08/01 20:59:07;;;;;;;0.77;0.30;;;;;;;20.21;60.85;99279.41;10498555;28;20047;-72
2023/08/01 21:04:08;;;;;;;1.75;0.30;;;;;;;20.14;61.21;99276.13;10497245;28;20446;-71
2023/08/01 21:09:10;;;;;;;6.95;0.52;;;;;;;20.16;60.84;99273.94;10502519;28;20048;-73
2023/08/01 21:14:12;;;;;;;5.32;0.38;;;;;;;20.16;60.88;99270.38;10502392;28;20072;-72
2023/08/01 21:19:14;;;;;;;2.63;0.40;;;;;;;20.12;60.89;99267.38;10500243;28;20064;-72
2023/08/01 21:24:15;;;;;;;3.13;0.77;;;;;;;20.08;61.34;99254.53;10502245;28;20147;-71
2023/08/01 21:29:16;;;;;;;2.78;0.47;;;;;;;20.05;61.89;99274.97;10497256;28;20115;-72
2023/08/01 21:34:18;;;;;;;3.58;0.40;;;;;;;20.09;61.31;99275.28;10502180;28;20083;-73
2023/08/01 21:39:19;;;;;;;2.08;0.20;;;;;;;19.98;61.98;99261.59;10501244;28;20163;-73
2023/08/01 21:44:21;;;;;;;3.83;0.43;;;;;;;19.96;62.34;99263.75;10501000;28;20369;-73
2023/08/01 21:49:22;;;;;;;2.60;0.50;;;;;;;19.98;62.18;99266.19;10500546;28;20071;-71
2023/08/01 21:54:24;;;;;;;2.33;0.45;;;;;;;19.93;62.79;99269.72;10496249;28;20055;-72
2023/08/01 21:59:25;;;;;;;1.88;0.30;;;;;;;19.87;62.52;99254.44;10499971;28;20268;-73
2023/08/01 22:04:27;;;;;;;3.03;0.40;;;;;;;19.75;63.21;99251.91;10499448;28;20067;-72
2023/08/01 22:09:28;;;;;;;1.42;0.40;;;;;;;19.66;63.18;99252.63;10500572;28;20056;-72
2023/08/01 22:14:30;;;;;;;2.60;0.60;;;;;;;19.51;63.79;99247.88;10500311;28;20056;-71
2023/08/01 22:19:31;;;;;;;4.32;0.77;;;;;;;19.39;63.95;99245.34;10495536;28;20044;-71
2023/08/01 22:24:33;;;;;;;3.10;0.40;;;;;;;19.33;64.05;99249.97;10499989;28;20074;-71
2023/08/01 22:29:35;;;;;;;3.13;0.80;;;;;;;19.23;64.71;99255.31;10498384;28;20048;-72
2023/08/01 22:34:36;;;;;;;1.85;0.50;;;;;;;19.14;64.90;99256.88;10500113;28;20059;-71
2023/08/01 22:39:38;;;;;;;6.13;1.42;;;;;;;19.10;65.45;99263.94;10497385;28;20426;-72
2023/08/01 22:44:39;;;;;;;4.78;0.50;;;;;;;19.09;65.58;99267.72;10495702;28;20044;-71
2023/08/01 22:49:41;;;;;;;1.33;0.63;;;;;;;19.09;65.70;99260.38;10498262;28;20116;-72
2023/08/01 22:55:03;;;;;;;1.83;0.60;;;;;;;19.13;65.87;99261.50;10499894;28;20102;-72
2023/08/01 23:00:05;;;;;;;5.68;0.70;;;;;;;19.11;66.15;99263.66;10497634;28;20052;-73
2023/08/01 23:05:08;;;;;;;5.70;0.90;;;;;;;19.17;66.07;99249.03;10493795;28;20048;-74
2023/08/01 23:10:09;;;;;;;3.03;0.50;;;;;;;19.25;65.98;99246.88;10499761;28;20147;-72
2023/08/01 23:15:11;;;;;;;3.33;0.50;;;;;;;19.24;66.40;99256.97;10496665;28;20048;-73
2023/08/01 23:20:12;;;;;;;3.45;0.75;;;;;;;19.20;66.23;99264.84;10472235;28;20111;-72